Time;durP1;ratioP1;P1;durP2;ratioP2;P2;SDS_P1;SDS_P2;PMS_P1;PMS_P2;Temp;Humidity;BMP_temperature;BMP_pressure;BME280_temperature;BME280_humidity;BME280_pressure;Samples;Min_cycle;Max_cycle;Signal;HPM_P1;HPM_P2
2021/08/31 02:19:13;;;;;;;;;;;;;;;;;;;;;
2021/08/31 02:21:45;;;;;;;10.43;9.43;;;15.90;1.00;;;;;;5914313;24;20989;-81
2021/08/31 02:24:12;;;;;;;11.27;10.10;;;15.90;1.00;;;;;;5893027;24;20428;-79
2021/08/31 02:26:38;;;;;;;12.10;10.80;;;15.90;1.00;;;;;;6018321;23;20419;-78
2021/08/31 02:29:05;;;;;;;12.60;11.40;;;15.90;1.00;;;;;;6101952;23;20483;-78
2021/08/31 02:31:32;;;;;;;11.83;10.63;;;15.90;1.00;;;;;;6121910;23;21217;-78
2021/08/31 02:33:59;;;;;;;11.73;10.53;;;15.90;1.00;;;;;;6118376;23;20462;-80
2021/08/31 02:36:26;;;;;;;11.97;10.50;;;15.90;1.00;;;;;;6119632;23;21364;-79
2021/08/31 02:38:54;;;;;;;12.90;11.57;;;15.90;1.00;;;;;;6121061;23;20506;-78
2021/08/31 02:41:21;;;;;;;12.20;10.50;;;15.90;1.00;;;;;;6145421;23;20402;-77
2021/08/31 02:43:48;;;;;;;12.50;11.30;;;15.90;1.00;;;;;;6134069;23;20393;-80
2021/08/31 02:46:15;;;;;;;12.23;11.00;;;15.90;1.00;;;;;;6146844;23;20385;-79
2021/08/31 02:48:43;;;;;;;12.10;9.90;;;15.90;1.00;;;;;;6148373;23;20417;-79
2021/08/31 02:51:10;;;;;;;15.00;10.77;;;15.90;1.00;;;;;;6145674;23;20472;-80
2021/08/31 02:53:38;;;;;;;10.83;9.83;;;16.00;1.00;;;;;;6146407;23;20858;-81
2021/08/31 02:56:06;;;;;;;12.40;11.07;;;15.90;1.00;;;;;;6121037;23;20464;-79
2021/08/31 02:58:33;;;;;;;11.33;10.23;;;15.90;1.00;;;;;;6118336;23;20421;-80
2021/08/31 03:01:28;;;;;;;11.53;10.27;;;15.90;1.00;;;;;;6119332;23;20431;-78
2021/08/31 03:03:57;;;;;;;12.23;11.00;;;15.90;1.00;;;;;;6147700;23;20422;-81
2021/08/31 03:06:26;;;;;;;16.67;11.47;;;15.90;1.00;;;;;;6119815;23;20411;-77
2021/08/31 03:08:53;;;;;;;12.80;11.27;;;15.90;1.00;;;;;;6122082;23;20530;-79
2021/08/31 03:11:22;;;;;;;13.63;12.10;;;15.90;1.00;;;;;;6137802;23;20436;-78
2021/08/31 03:13:49;;;;;;;12.57;11.23;;;15.90;1.00;;;;;;6144246;23;20491;-79
2021/08/31 03:16:17;;;;;;;13.03;10.37;;;15.90;1.00;;;;;;6166870;23;20430;-78
2021/08/31 03:18:44;;;;;;;13.20;10.80;;;15.90;1.00;;;;;;6157833;23;20399;-80
2021/08/31 03:21:11;;;;;;;13.10;11.80;;;15.90;1.00;;;;;;6147285;23;20709;-80
2021/08/31 03:23:38;;;;;;;11.47;10.37;;;16.00;1.00;;;;;;6120088;23;20421;-79
2021/08/31 03:26:04;;;;;;;12.23;11.00;;;16.00;1.00;;;;;;6147368;23;20409;-81
2021/08/31 03:28:33;;;;;;;11.57;10.47;;;16.00;1.00;;;;;;6147612;23;20417;-80
2021/08/31 03:30:59;;;;;;;17.87;12.27;;;16.00;1.00;;;;;;6148493;23;20409;-80
2021/08/31 03:33:26;;;;;;;12.20;11.00;;;16.00;1.00;;;;;;6150372;23;21207;-80
2021/08/31 03:35:53;;;;;;;14.50;10.60;;;16.00;1.00;;;;;;6152511;23;20525;-79
2021/08/31 03:38:21;;;;;;;14.57;11.50;;;16.10;1.00;;;;;;6129898;23;20424;-79
2021/08/31 03:40:48;;;;;;;13.40;11.57;;;16.10;1.00;;;;;;6139290;23;20393;-78
2021/08/31 03:43:15;;;;;;;13.23;11.77;;;16.10;1.00;;;;;;6143728;23;20423;-75
2021/08/31 03:45:44;;;;;;;13.10;11.77;;;16.10;1.00;;;;;;6142950;23;20414;-79
2021/08/31 03:48:11;;;;;;;12.40;11.27;;;16.00;1.00;;;;;;6149721;23;20384;-78
2021/08/31 03:50:39;;;;;;;12.67;11.40;;;16.10;1.00;;;;;;6180310;23;20383;-78
2021/08/31 03:53:06;;;;;;;14.90;11.40;;;16.00;1.00;;;;;;6150721;23;20486;-79
2021/08/31 03:55:33;;;;;;;12.90;11.60;;;16.00;1.00;;;;;;6146087;23;20419;-78
2021/08/31 03:58:00;;;;;;;12.33;11.03;;;16.00;1.00;;;;;;6163912;23;20435;-77
2021/08/31 04:00:27;;;;;;;13.97;12.30;;;16.00;1.00;;;;;;6169518;23;20395;-78
2021/08/31 04:02:55;;;;;;;12.83;11.00;;;16.00;1.00;;;;;;6166032;23;20371;-79
2021/08/31 04:05:22;;;;;;;13.83;11.97;;;16.00;1.00;;;;;;6178317;23;20372;-79
2021/08/31 04:07:49;;;;;;;13.50;11.57;;;16.00;1.00;;;;;;6178546;23;20405;-79
2021/08/31 04:10:16;;;;;;;11.27;10.13;;;16.10;1.00;;;;;;6179061;23;20381;-79
2021/08/31 04:12:43;;;;;;;11.40;10.20;;;16.10;1.00;;;;;;6150174;23;20431;-77
2021/08/31 04:15:12;;;;;;;14.20;12.70;;;16.10;1.00;;;;;;6152149;23;20411;-77
2021/08/31 04:17:38;;;;;;;21.50;15.90;;;16.10;1.00;;;;;;6151279;23;20402;-78
2021/08/31 04:20:09;;;;;;;14.10;12.07;;;16.10;1.00;;;;;;6178319;23;20375;-79
2021/08/31 04:22:46;;;;;;;12.70;11.33;;;16.20;1.00;;;;;;6173736;23;20391;-78
2021/08/31 04:25:18;;;;;;;12.73;11.40;;;16.20;1.00;;;;;;6148197;23;20396;-77
2021/08/31 04:27:54;;;;;;;11.90;10.80;;;16.20;1.00;;;;;;6148190;23;20382;-79
2021/08/31 04:30:32;;;;;;;13.40;9.83;;;16.20;1.00;;;;;;6141291;23;20466;-79
2021/08/31 04:43:26;;;;;;;11.90;10.60;;;16.10;1.00;;;;;;5981447;23;20675;-79
2021/08/31 04:45:55;;;;;;;12.47;11.03;;;16.10;1.00;;;;;;6026668;23;20436;-79
2021/08/31 04:48:23;;;;;;;11.67;10.47;;;16.10;1.00;;;;;;6116401;23;20504;-82
2021/08/31 04:50:50;;;;;;;12.67;11.57;;;16.10;1.00;;;;;;6148593;23;20552;-80
2021/08/31 04:53:20;;;;;;;12.50;11.07;;;16.10;1.00;;;;;;6152317;23;20514;-78
2021/08/31 04:55:46;;;;;;;14.40;12.33;;;16.10;1.00;;;;;;6152566;23;20394;-78
2021/08/31 04:58:14;;;;;;;13.70;11.87;;;16.10;1.00;;;;;;6150504;23;21736;-80
2021/08/31 05:00:42;;;;;;;10.60;9.60;;;16.10;1.00;;;;;;6122594;23;20421;-80
2021/08/31 05:03:09;;;;;;;15.00;10.73;;;16.10;1.00;;;;;;6146613;23;21013;-78
2021/08/31 05:05:36;;;;;;;11.40;10.20;;;16.10;1.00;;;;;;6145452;23;20400;-79
2021/08/31 05:08:03;;;;;;;13.57;10.90;;;16.10;1.00;;;;;;6123051;23;20421;-81
2021/08/31 05:10:29;;;;;;;11.17;10.20;;;16.00;1.00;;;;;;6143118;23;20616;-79
2021/08/31 05:12:56;;;;;;;12.47;11.13;;;16.00;1.00;;;;;;6146044;23;20422;-78
2021/08/31 05:15:24;;;;;;;12.40;10.50;;;16.10;1.00;;;;;;6147428;23;21094;-85
2021/08/31 05:17:56;;;;;;;12.83;10.77;;;16.10;1.00;;;;;;6125784;23;20420;-84
2021/08/31 05:20:25;;;;;;;11.80;9.27;;;16.10;1.00;;;;;;6148410;23;20457;-82
2021/08/31 05:22:52;;;;;;;13.10;11.63;;;16.10;1.00;;;;;;6121405;23;20406;-80
2021/08/31 05:25:20;;;;;;;12.03;10.83;;;16.10;1.00;;;;;;6150221;23;20477;-80
2021/08/31 05:27:47;;;;;;;13.10;11.20;;;16.10;1.00;;;;;;6150430;23;20554;-82
2021/08/31 05:30:14;;;;;;;11.00;9.60;;;16.10;1.00;;;;;;6148951;23;20948;-77
2021/08/31 05:32:42;;;;;;;11.00;10.00;;;16.10;1.00;;;;;;6122102;23;20499;-75
2021/08/31 05:35:17;;;;;;;11.43;10.43;;;16.10;1.00;;;;;;6145001;23;20516;-81
2021/08/31 05:37:44;;;;;;;12.27;10.83;;;16.20;1.00;;;;;;6144554;23;20388;-82
2021/08/31 05:40:23;;;;;;;12.20;10.60;;;16.20;1.00;;;;;;6152319;23;20679;-82
2021/08/31 05:42:56;;;;;;;11.73;10.63;;;16.20;1.00;;;;;;6125219;23;20905;-81
2021/08/31 05:45:28;;;;;;;13.57;10.40;;;16.10;1.00;;;;;;6124035;23;20499;-81
2021/08/31 05:48:08;;;;;;;13.40;12.10;;;16.00;1.00;;;;;;6144955;23;20450;-78
2021/08/31 05:50:53;;;;;;;12.57;11.27;;;15.90;1.00;;;;;;6146461;23;20404;-78
2021/08/31 05:53:26;;;;;;;14.30;12.93;;;15.90;1.00;;;;;;6120523;23;20430;-80
2021/08/31 05:55:59;;;;;;;13.97;12.30;;;15.90;1.00;;;;;;6144057;23;21746;-78
2021/08/31 06:12:33;;;;;;;12.90;11.67;;;16.00;1.00;;;;;;5903522;23;21490;-82
2021/08/31 06:15:00;;;;;;;11.17;9.87;;;15.90;1.00;;;;;;6142020;23;21432;-79
2021/08/31 06:17:27;;;;;;;12.87;10.43;;;16.00;1.00;;;;;;6146204;23;20412;-79
2021/08/31 06:19:54;;;;;;;12.83;11.50;;;16.00;1.00;;;;;;6121389;23;20417;-79
2021/08/31 06:22:21;;;;;;;13.03;10.27;;;16.00;1.00;;;;;;6122327;23;20511;-79
2021/08/31 06:24:48;;;;;;;12.23;11.03;;;16.00;1.00;;;;;;6142972;23;20443;-78
2021/08/31 06:27:15;;;;;;;13.03;11.77;;;16.00;1.00;;;;;;6124792;23;20452;-82
2021/08/31 06:29:43;;;;;;;11.30;10.10;;;16.10;1.00;;;;;;6125895;23;20433;-83
2021/08/31 06:32:10;;;;;;;10.90;9.80;;;16.10;1.00;;;;;;6148024;23;20412;-83
2021/08/31 06:34:36;;;;;;;12.77;11.37;;;16.10;1.00;;;;;;6154984;23;20437;-83
2021/08/31 06:37:03;;;;;;;13.47;12.23;;;16.20;1.00;;;;;;6152544;23;20399;-83
2021/08/31 06:39:32;;;;;;;13.53;12.23;;;16.20;1.00;;;;;;6153096;23;20378;-82
2021/08/31 06:41:59;;;;;;;14.23;11.30;;;16.10;1.00;;;;;;6150675;23;20806;-83
2021/08/31 06:44:26;;;;;;;15.90;14.07;;;16.10;1.00;;;;;;6149534;23;20406;-84
2021/08/31 06:46:55;;;;;;;12.90;11.60;;;16.10;1.00;;;;;;6125994;23;20567;-83
2021/08/31 06:49:21;;;;;;;12.03;10.93;;;16.10;1.00;;;;;;6150519;23;21256;-83
2021/08/31 06:51:49;;;;;;;12.87;11.10;;;16.20;1.00;;;;;;6151976;23;20428;-83
2021/08/31 06:54:18;;;;;;;12.40;11.17;;;16.20;1.00;;;;;;6151729;23;20417;-82
2021/08/31 06:56:46;;;;;;;13.73;11.50;;;16.10;1.00;;;;;;6152079;23;20403;-83
2021/08/31 06:59:12;;;;;;;11.60;10.50;;;16.10;1.00;;;;;;6125587;23;20441;-84
2021/08/31 07:01:40;;;;;;;12.63;11.40;;;16.20;1.00;;;;;;6152254;23;20427;-83
2021/08/31 07:04:08;;;;;;;11.53;10.43;;;16.20;1.00;;;;;;6148671;23;20413;-83
2021/08/31 07:06:35;;;;;;;12.80;11.53;;;16.30;1.00;;;;;;6156136;23;20400;-84
2021/08/31 07:09:04;;;;;;;11.53;10.43;;;16.30;1.00;;;;;;6150574;23;21093;-83
2021/08/31 07:11:31;;;;;;;12.27;10.93;;;16.50;1.00;;;;;;6161410;23;20814;-82
2021/08/31 07:13:58;;;;;;;12.30;11.00;;;16.60;1.00;;;;;;6175079;23;20421;-82
2021/08/31 07:16:25;;;;;;;11.60;10.40;;;16.70;1.00;;;;;;6135586;23;20386;-81
2021/08/31 07:18:51;;;;;;;14.13;10.37;;;16.80;1.00;;;;;;6151593;23;21171;-81
2021/08/31 07:21:20;;;;;;;12.30;11.07;;;16.90;1.00;;;;;;6127445;23;20497;-83
2021/08/31 07:23:47;;;;;;;14.50;11.60;;;17.00;1.00;;;;;;6148816;23;20418;-84
2021/08/31 07:26:14;;;;;;;12.67;10.77;;;17.00;1.00;;;;;;6124962;23;20391;-82
2021/08/31 07:28:41;;;;;;;12.47;10.97;;;17.10;1.00;;;;;;6127336;23;21193;-86
2021/08/31 07:31:10;;;;;;;13.87;10.37;;;17.20;1.00;;;;;;6153876;23;20429;-85
2021/08/31 07:33:37;;;;;;;13.13;9.33;;;17.40;1.00;;;;;;6124214;23;20485;-85
2021/08/31 07:36:05;;;;;;;12.50;11.23;;;17.60;1.00;;;;;;6127860;23;20412;-85
2021/08/31 07:38:33;;;;;;;18.83;11.00;;;17.70;1.00;;;;;;6155142;23;20401;-86
2021/08/31 07:41:00;;;;;;;12.73;8.70;;;17.90;1.00;;;;;;6153355;23;20402;-87
2021/08/31 07:43:27;;;;;;;10.87;9.77;;;18.00;1.00;;;;;;6123486;23;20639;-85
2021/08/31 07:45:54;;;;;;;10.53;9.20;;;18.00;1.00;;;;;;6154183;23;20420;-86
2021/08/31 07:48:21;;;;;;;11.50;9.20;;;18.20;1.00;;;;;;6151592;23;20462;-85
2021/08/31 07:50:48;;;;;;;15.00;9.80;;;18.40;1.00;;;;;;6151628;23;20426;-86
2021/08/31 07:53:15;;;;;;;10.50;9.43;;;18.60;1.00;;;;;;6126060;23;20581;-84
2021/08/31 07:55:43;;;;;;;12.53;9.43;;;18.90;1.00;;;;;;6126725;23;20521;-86
2021/08/31 07:58:10;;;;;;;12.13;9.33;;;19.20;1.00;;;;;;6153949;23;20422;-86
2021/08/31 08:00:39;;;;;;;10.80;9.40;;;19.40;1.00;;;;;;6156455;23;20469;-84
2021/08/31 08:03:06;;;;;;;9.83;8.73;;;19.60;1.00;;;;;;6152616;23;20525;-86
2021/08/31 08:05:33;;;;;;;8.93;8.13;;;19.70;1.00;;;;;;6152948;23;20418;-86
2021/08/31 08:08:00;;;;;;;9.33;8.40;;;19.90;1.00;;;;;;6153364;23;20535;-86
2021/08/31 08:10:27;;;;;;;9.73;8.30;;;20.10;1.00;;;;;;6151769;23;20475;-84
2021/08/31 08:12:56;;;;;;;9.10;8.03;;;20.30;1.00;;;;;;6154727;23;20375;-87
2021/08/31 08:15:25;;;;;;;11.27;8.70;;;20.50;1.00;;;;;;6154824;23;20475;-85
2021/08/31 08:17:52;;;;;;;8.30;7.50;;;20.70;1.00;;;;;;6155740;23;20495;-86
2021/08/31 08:20:19;;;;;;;9.27;8.07;;;20.90;1.00;;;;;;6153793;23;20361;-85
2021/08/31 08:22:46;;;;;;;9.83;8.33;;;21.10;1.00;;;;;;6157504;23;20459;-83
2021/08/31 08:25:14;;;;;;;7.53;6.80;;;21.10;1.00;;;;;;6129737;23;20390;-88
2021/08/31 08:27:41;;;;;;;9.10;7.43;;;21.10;1.00;;;;;;6126830;23;20408;-84
2021/08/31 08:30:11;;;;;;;15.73;9.37;;;21.00;1.00;;;;;;6157080;23;20725;-86
2021/08/31 08:32:38;;;;;;;9.13;8.23;;;20.80;1.00;;;;;;6155485;23;21605;-85
2021/08/31 08:35:07;;;;;;;12.10;8.17;;;20.70;1.00;;;;;;6155195;23;20498;-85
2021/08/31 08:37:34;;;;;;;11.13;9.87;;;20.60;1.00;;;;;;6127980;23;20455;-85
2021/08/31 08:40:01;;;;;;;9.87;8.87;;;20.60;1.00;;;;;;6154907;23;21763;-85
2021/08/31 08:42:28;;;;;;;7.83;7.10;;;20.60;1.00;;;;;;6160481;23;20368;-87
2021/08/31 08:44:54;;;;;;;9.87;8.17;;;20.80;1.00;;;;;;6158963;23;20882;-87
2021/08/31 08:47:23;;;;;;;8.80;7.90;;;20.90;1.00;;;;;;6157212;23;20401;-85
2021/08/31 08:49:50;;;;;;;11.40;8.63;;;21.10;1.00;;;;;;6160664;23;20433;-86
2021/08/31 08:52:17;;;;;;;10.70;7.70;;;21.20;1.00;;;;;;6159957;23;20384;-84
2021/08/31 08:54:44;;;;;;;12.10;8.73;;;21.30;1.00;;;;;;6160098;23;20536;-86
2021/08/31 08:57:11;;;;;;;10.47;8.37;;;21.40;1.00;;;;;;6140081;23;20515;-80
2021/08/31 08:59:41;;;;;;;8.30;7.37;;;21.50;1.00;;;;;;6173303;23;20420;-80
2021/08/31 09:02:09;;;;;;;11.00;9.07;;;21.60;1.00;;;;;;6155557;23;20409;-80
2021/08/31 09:04:49;;;;;;;10.57;8.40;;;21.90;1.00;;;;;;6156183;23;20373;-83
2021/08/31 09:07:21;;;;;;;12.80;8.10;;;22.00;1.00;;;;;;6158866;23;20384;-79
2021/08/31 09:09:50;;;;;;;10.77;8.77;;;21.70;1.00;;;;;;6157756;23;20436;-82
2021/08/31 09:12:30;;;;;;;8.73;7.87;;;21.50;1.00;;;;;;6153610;23;21443;-80
2021/08/31 09:15:17;;;;;;;8.40;7.60;;;21.50;1.00;;;;;;6150478;23;20472;-80
2021/08/31 09:18:17;;;;;;;12.10;8.40;;;21.70;1.00;;;;;;6154829;23;20469;-79
2021/08/31 09:21:04;;;;;;;10.73;9.30;;;22.20;1.00;;;;;;6154822;23;20531;-82
2021/08/31 09:23:32;;;;;;;9.87;8.70;;;22.80;1.00;;;;;;6150418;23;20834;-80
2021/08/31 09:26:06;;;;;;;13.57;8.47;;;23.50;1.00;;;;;;6155916;23;20406;-81
2021/08/31 09:28:35;;;;;;;9.20;8.40;;;24.00;1.00;;;;;;6155630;23;20418;-81
2021/08/31 09:31:05;;;;;;;7.93;7.20;;;24.50;1.00;;;;;;6156238;23;20395;-80
2021/08/31 09:33:33;;;;;;;7.73;6.93;;;24.50;1.00;;;;;;6156705;23;20501;-80
2021/08/31 09:36:14;;;;;;;9.27;8.37;;;24.50;1.00;;;;;;6152400;23;21630;-81
2021/08/31 09:38:51;;;;;;;8.90;7.70;;;24.70;1.00;;;;;;6156777;23;20402;-81
2021/08/31 09:41:34;;;;;;;8.73;7.83;;;24.60;1.00;;;;;;6165421;23;20390;-79
2021/08/31 09:44:03;;;;;;;15.83;9.30;;;24.30;1.00;;;;;;6166218;23;20429;-78
2021/08/31 09:46:50;;;;;;;8.73;7.57;;;23.90;1.00;;;;;;6169259;23;20510;-81
2021/08/31 09:49:21;;;;;;;9.40;8.43;;;23.50;1.00;;;;;;6165469;23;20379;-80
2021/08/31 09:52:05;;;;;;;9.03;7.80;;;23.30;1.00;;;;;;6168230;23;20356;-81
2021/08/31 09:54:36;;;;;;;9.17;8.27;;;23.30;1.00;;;;;;6169790;23;20830;-80
2021/08/31 09:57:39;;;;;;;9.97;8.57;;;23.30;1.00;;;;;;6169955;23;20442;-79
2021/08/31 10:00:09;;;;;;;9.37;8.50;;;23.10;1.00;;;;;;6146009;23;20404;-79
2021/08/31 10:02:36;;;;;;;8.97;8.17;;;22.80;1.00;;;;;;6170363;23;20413;-80
2021/08/31 10:05:04;;;;;;;10.20;8.07;;;22.60;1.00;;;;;;6170469;23;20407;-79
2021/08/31 10:07:32;;;;;;;9.80;8.90;;;22.60;1.00;;;;;;6140374;23;20488;-79
2021/08/31 10:10:01;;;;;;;8.93;8.13;;;22.50;1.00;;;;;;6157437;23;20370;-80
2021/08/31 10:12:30;;;;;;;11.23;8.43;;;22.50;1.00;;;;;;6157409;23;20900;-80
2021/08/31 10:14:59;;;;;;;8.90;8.10;;;22.70;1.00;;;;;;6154690;23;20483;-80
2021/08/31 10:17:28;;;;;;;9.33;8.53;;;23.10;1.00;;;;;;6156887;23;20410;-79
2021/08/31 10:19:57;;;;;;;9.37;8.17;;;23.20;1.00;;;;;;6162461;23;20847;-83
2021/08/31 10:22:24;;;;;;;10.20;9.00;;;23.50;1.00;;;;;;6154630;23;21240;-81
2021/08/31 10:24:53;;;;;;;9.10;8.27;;;23.90;1.00;;;;;;6156924;23;20527;-81
2021/08/31 10:27:35;;;;;;;8.30;7.50;;;23.80;1.00;;;;;;6152381;23;21239;-81
2021/08/31 10:30:34;;;;;;;9.67;8.30;;;24.00;1.00;;;;;;6153513;23;20400;-80
2021/08/31 10:33:03;;;;;;;8.37;7.57;;;25.00;1.00;;;;;;6152736;23;20692;-80
2021/08/31 10:35:52;;;;;;;9.63;7.87;;;26.00;1.00;;;;;;6152660;23;20511;-82
2021/08/31 10:38:40;;;;;;;10.13;9.17;;;26.40;1.00;;;;;;6153030;23;20418;-81
2021/08/31 10:41:44;;;;;;;10.00;9.00;;;25.90;1.00;;;;;;6130375;23;20463;-80
2021/08/31 10:44:35;;;;;;;7.47;6.83;;;25.50;1.00;;;;;;6157272;23;20393;-81
2021/08/31 10:47:20;;;;;;;9.43;8.40;;;25.10;1.00;;;;;;6160281;23;20422;-81
2021/08/31 10:50:21;;;;;;;9.47;8.57;;;24.50;1.00;;;;;;6157434;23;20386;-81
2021/08/31 10:53:02;;;;;;;8.30;7.40;;;23.90;1.00;;;;;;6157864;23;20394;-81
2021/08/31 10:55:44;;;;;;;8.83;7.77;;;23.50;1.00;;;;;;6154544;23;20380;-81
2021/08/31 10:58:13;;;;;;;9.70;7.73;;;23.20;1.00;;;;;;6153958;23;20422;-80
2021/08/31 11:00:49;;;;;;;10.10;9.10;;;23.20;1.00;;;;;;6157769;23;20477;-78
2021/08/31 11:03:31;;;;;;;9.00;7.70;;;23.40;1.00;;;;;;6174924;23;20355;-80
2021/08/31 11:06:20;;;;;;;8.83;8.03;;;23.80;1.00;;;;;;6162715;23;20434;-81
2021/08/31 11:09:18;;;;;;;8.53;7.70;;;24.40;1.00;;;;;;6155930;23;20406;-80
2021/08/31 11:12:13;;;;;;;7.73;7.03;;;25.10;1.00;;;;;;6159628;23;20367;-81
2021/08/31 11:14:45;;;;;;;8.93;8.00;;;25.20;1.00;;;;;;6131881;23;20396;-81
2021/08/31 11:17:27;;;;;;;10.40;8.27;;;24.80;1.00;;;;;;6159865;23;20412;-81
2021/08/31 11:20:10;;;;;;;8.13;7.40;;;24.40;1.00;;;;;;6131711;23;20528;-80
2021/08/31 11:22:37;;;;;;;7.97;7.17;;;24.90;1.00;;;;;;6160746;23;20359;-80
2021/08/31 11:25:04;;;;;;;11.27;8.93;;;25.30;1.00;;;;;;6158865;23;20475;-81
2021/08/31 11:27:47;;;;;;;8.87;7.67;;;25.10;1.00;;;;;;6157291;23;20387;-81
2021/08/31 11:30:16;;;;;;;9.07;8.17;;;25.30;1.00;;;;;;6159729;23;20381;-81
2021/08/31 11:32:42;;;;;;;8.10;7.40;;;25.30;1.00;;;;;;6143208;23;20386;-80
2021/08/31 11:35:09;;;;;;;8.50;7.70;;;25.00;1.00;;;;;;6176421;23;20391;-81
2021/08/31 11:37:48;;;;;;;8.40;7.60;;;24.70;1.00;;;;;;6175500;23;20446;-80
2021/08/31 11:40:14;;;;;;;8.07;7.37;;;24.90;1.00;;;;;;6151707;23;20446;-80
2021/08/31 11:42:52;;;;;;;8.50;7.50;;;25.10;1.00;;;;;;6175152;22;20399;-79
2021/08/31 11:45:22;;;;;;;7.20;6.60;;;25.80;1.00;;;;;;6145902;23;20419;-80
2021/08/31 11:47:53;;;;;;;9.37;7.60;;;26.20;1.00;;;;;;6157560;23;20546;-80
2021/08/31 11:50:21;;;;;;;7.80;7.00;;;25.90;1.00;;;;;;6133655;23;20403;-80
2021/08/31 11:52:48;;;;;;;10.90;8.10;;;25.40;1.00;;;;;;6155952;23;20406;-81
2021/08/31 11:55:22;;;;;;;8.47;7.60;;;24.80;1.00;;;;;;6161703;23;20422;-81
2021/08/31 11:57:49;;;;;;;7.73;7.03;;;24.70;1.00;;;;;;6134174;23;20541;-80
2021/08/31 12:00:16;;;;;;;8.43;7.30;;;24.90;1.00;;;;;;6169621;23;20409;-80
2021/08/31 12:02:47;;;;;;;13.27;12.00;;;25.10;1.00;;;;;;6176819;23;20359;-79
2021/08/31 12:05:14;;;;;;;7.63;6.93;;;25.20;1.00;;;;;;6172925;22;20440;-79
2021/08/31 12:07:42;;;;;;;11.17;7.10;;;25.10;1.00;;;;;;6173653;23;20410;-80
2021/08/31 12:10:11;;;;;;;6.83;6.23;;;25.30;1.00;;;;;;6173900;23;20422;-79
2021/08/31 12:12:42;;;;;;;8.17;6.43;;;25.80;1.00;;;;;;6175556;23;20396;-81
2021/08/31 12:15:10;;;;;;;7.57;6.97;;;26.20;1.00;;;;;;6175501;23;20870;-81
2021/08/31 12:17:42;;;;;;;6.83;6.17;;;26.80;1.00;;;;;;6167385;23;20406;-80
2021/08/31 12:20:12;;;;;;;6.97;6.27;;;27.60;1.00;;;;;;6177731;22;20391;-80
2021/08/31 12:22:41;;;;;;;6.40;5.60;;;28.50;1.00;;;;;;6153066;23;20362;-81
2021/08/31 12:25:09;;;;;;;6.43;5.77;;;28.00;1.00;;;;;;6178123;23;20372;-81
2021/08/31 12:27:38;;;;;;;6.93;6.23;;;26.90;1.00;;;;;;6178499;23;20372;-81
2021/08/31 12:30:07;;;;;;;8.43;7.50;;;26.30;1.00;;;;;;6179175;23;20443;-81
2021/08/31 12:32:34;;;;;;;8.37;6.77;;;25.30;1.00;;;;;;6151046;23;20379;-81
2021/08/31 12:35:23;;;;;;;6.63;5.97;;;24.50;1.00;;;;;;6183377;22;20413;-80
2021/08/31 12:38:05;;;;;;;10.60;7.40;;;23.80;1.00;;;;;;6184381;22;20526;-81
2021/08/31 12:40:34;;;;;;;6.97;6.37;;;23.40;1.00;;;;;;6184125;23;20375;-80
2021/08/31 12:43:06;;;;;;;7.37;6.63;;;23.30;1.00;;;;;;6186490;23;20366;-88
2021/08/31 12:45:34;;;;;;;7.20;6.50;;;23.40;1.00;;;;;;6172430;23;20551;-83
2021/08/31 12:48:02;;;;;;;8.17;7.37;;;24.00;1.00;;;;;;6184000;23;20355;-83
2021/08/31 12:50:31;;;;;;;7.67;6.87;;;25.60;1.00;;;;;;6183527;23;20420;-84
2021/08/31 12:53:04;;;;;;;6.63;6.00;;;27.20;1.00;;;;;;6183805;23;20391;-83
2021/08/31 12:55:32;;;;;;;6.23;5.63;;;28.60;1.00;;;;;;6185477;23;20417;-83
2021/08/31 12:58:24;;;;;;;7.77;6.30;;;29.50;1.00;;;;;;6184783;23;20414;-83
2021/08/31 13:01:04;;;;;;;6.40;5.60;;;30.10;1.00;;;;;;6185268;23;20376;-83
2021/08/31 13:03:31;;;;;;;6.70;6.03;;;30.80;1.00;;;;;;6183872;23;20441;-82
2021/08/31 13:06:00;;;;;;;6.93;6.03;;;31.70;1.00;;;;;;6158183;23;20385;-81
2021/08/31 13:08:27;;;;;;;6.60;6.03;;;31.60;1.00;;;;;;6182733;23;20379;-83
2021/08/31 13:10:54;;;;;;;6.63;6.03;;;30.90;1.00;;;;;;6180404;23;20396;-83
2021/08/31 13:13:28;;;;;;;6.50;5.87;;;31.10;1.00;;;;;;6175655;23;20412;-83
2021/08/31 13:15:55;;;;;;;7.93;7.13;;;31.80;1.00;;;;;;6173471;23;21556;-84
2021/08/31 13:18:21;;;;;;;7.30;6.53;;;32.00;1.00;;;;;;6174735;23;20511;-83
2021/08/31 13:20:48;;;;;;;6.47;5.40;;;32.00;1.00;;;;;;6179098;23;20361;-83
2021/08/31 13:23:16;;;;;;;6.80;6.00;;;31.80;1.00;;;;;;6182172;23;20449;-82
2021/08/31 13:25:43;;;;;;;6.47;5.87;;;31.80;1.00;;;;;;6178683;23;20381;-84
2021/08/31 13:28:10;;;;;;;7.67;5.80;;;31.60;1.00;;;;;;6151898;23;20392;-82
2021/08/31 13:30:38;;;;;;;6.50;6.00;;;31.20;1.00;;;;;;6175560;23;20435;-84
2021/08/31 13:33:05;;;;;;;7.20;6.50;;;30.30;1.00;;;;;;6179527;23;20451;-83
2021/08/31 13:35:32;;;;;;;6.20;5.67;;;29.80;1.00;;;;;;6153232;23;20506;-83
2021/08/31 13:37:59;;;;;;;5.90;5.40;;;29.70;1.00;;;;;;6176180;23;20469;-82
2021/08/31 13:40:27;;;;;;;8.60;7.80;;;29.50;1.00;;;;;;6171172;23;20405;-82
2021/08/31 13:42:55;;;;;;;5.90;5.30;;;29.50;1.00;;;;;;6167950;23;20428;-83
2021/08/31 13:45:22;;;;;;;8.13;5.30;;;29.50;1.00;;;;;;6168618;23;20405;-82
2021/08/31 13:47:49;;;;;;;6.17;5.47;;;29.40;1.00;;;;;;6195032;23;20424;-81
2021/08/31 13:50:15;;;;;;;10.77;6.07;;;29.50;1.00;;;;;;6195215;23;20455;-83
2021/08/31 13:52:42;;;;;;;5.87;5.37;;;29.60;1.00;;;;;;6195784;23;20400;-82
2021/08/31 13:55:10;;;;;;;7.30;6.40;;;30.00;1.00;;;;;;6192158;23;20981;-83
2021/08/31 13:57:38;;;;;;;7.13;5.50;;;29.50;1.00;;;;;;6195633;23;21058;-80
2021/08/31 14:00:06;;;;;;;6.03;4.97;;;28.80;1.00;;;;;;6197656;23;20515;-81
2021/08/31 14:02:33;;;;;;;12.00;7.87;;;28.60;1.00;;;;;;6195407;23;20389;-83
2021/08/31 14:05:00;;;;;;;6.53;5.80;;;29.00;1.00;;;;;;6196653;23;20897;-80
2021/08/31 14:07:27;;;;;;;6.93;5.63;;;28.90;1.00;;;;;;6177990;22;20410;-81
2021/08/31 14:09:53;;;;;;;5.67;5.03;;;28.20;1.00;;;;;;6204337;22;20382;-81
2021/08/31 14:12:20;;;;;;;8.20;4.80;;;27.60;1.00;;;;;;6197877;23;20386;-80
2021/08/31 14:14:48;;;;;;;7.53;4.83;;;26.90;1.00;;;;;;6195169;23;20434;-82
2021/08/31 14:17:15;;;;;;;13.30;10.40;;;26.40;1.00;;;;;;6191558;23;20423;-82
2021/08/31 14:19:42;;;;;;;6.03;4.80;;;26.10;1.00;;;;;;6190395;23;20484;-83
2021/08/31 14:22:09;;;;;;;5.33;4.50;;;25.50;1.00;;;;;;6197524;23;20501;-83
2021/08/31 14:24:35;;;;;;;5.57;4.23;;;25.10;1.00;;;;;;6195298;23;20364;-82
2021/08/31 14:27:04;;;;;;;4.43;4.03;;;24.50;1.00;;;;;;6193271;23;20484;-82
2021/08/31 14:29:31;;;;;;;7.40;5.27;;;23.90;1.00;;;;;;6190146;23;20422;-82
2021/08/31 14:32:00;;;;;;;6.60;4.10;;;23.60;1.00;;;;;;6190432;23;20482;-82
2021/08/31 14:34:26;;;;;;;7.43;5.33;;;23.40;1.00;;;;;;6190435;23;20773;-81
2021/08/31 14:36:53;;;;;;;5.03;4.53;;;23.20;1.00;;;;;;6190986;23;20388;-82
2021/08/31 14:39:20;;;;;;;4.70;4.07;;;23.00;1.00;;;;;;6165654;23;21232;-82
2021/08/31 14:41:47;;;;;;;4.83;4.27;;;22.80;1.00;;;;;;6192199;23;20393;-80
2021/08/31 14:44:14;;;;;;;5.33;4.83;;;22.60;1.00;;;;;;6193950;23;20442;-82
2021/08/31 14:46:42;;;;;;;9.37;5.40;;;22.50;1.00;;;;;;6193440;23;20423;-82
2021/08/31 14:49:10;;;;;;;6.10;5.50;;;22.50;1.00;;;;;;6194175;23;20429;-77
2021/08/31 14:51:37;;;;;;;7.40;6.80;;;22.50;1.00;;;;;;6194799;23;20416;-78
2021/08/31 14:54:03;;;;;;;7.20;5.90;;;22.60;1.00;;;;;;6203522;23;20499;-79
2021/08/31 14:56:30;;;;;;;8.83;5.23;;;22.70;1.00;;;;;;6207603;22;20547;-78
2021/08/31 14:58:57;;;;;;;6.40;5.50;;;22.70;1.00;;;;;;6193109;23;20498;-80
2021/08/31 15:01:24;;;;;;;6.80;4.77;;;22.80;1.00;;;;;;6193392;23;21020;-80
2021/08/31 15:03:51;;;;;;;7.30;5.10;;;22.90;1.00;;;;;;6187099;23;20981;-81
2021/08/31 15:06:19;;;;;;;5.00;4.03;;;23.00;1.00;;;;;;6188358;23;20894;-80
2021/08/31 15:08:46;;;;;;;6.60;5.37;;;23.10;1.00;;;;;;6189883;23;20954;-81
2021/08/31 15:11:13;;;;;;;6.37;5.47;;;23.00;1.00;;;;;;6189181;23;20426;-80
2021/08/31 15:13:40;;;;;;;5.80;5.20;;;23.00;1.00;;;;;;6188706;23;20403;-81
2021/08/31 15:16:07;;;;;;;5.87;4.70;;;23.10;1.00;;;;;;6186958;23;20398;-80
2021/08/31 15:18:34;;;;;;;5.60;5.10;;;23.10;1.00;;;;;;6159873;23;20422;-79
2021/08/31 15:21:02;;;;;;;6.23;5.37;;;23.00;1.00;;;;;;6183900;23;20412;-80
2021/08/31 15:23:30;;;;;;;5.60;4.93;;;23.00;1.00;;;;;;6187238;23;20414;-82
2021/08/31 15:25:56;;;;;;;6.60;5.67;;;23.10;1.00;;;;;;6165883;23;20882;-81
2021/08/31 15:28:23;;;;;;;6.33;5.07;;;23.30;1.00;;;;;;6168821;23;20486;-81
2021/08/31 15:30:50;;;;;;;7.17;5.90;;;23.40;1.00;;;;;;6188995;23;21247;-81
2021/08/31 15:33:16;;;;;;;6.47;4.53;;;23.30;1.00;;;;;;6193263;23;20398;-82
2021/08/31 15:35:43;;;;;;;6.73;4.83;;;23.20;1.00;;;;;;6183969;23;20704;-81
2021/08/31 15:38:10;;;;;;;5.30;4.70;;;23.00;1.00;;;;;;6181822;23;20580;-81
2021/08/31 15:40:38;;;;;;;5.63;4.30;;;22.90;1.00;;;;;;6182063;23;20849;-81
2021/08/31 15:43:05;;;;;;;5.70;5.10;;;22.70;1.00;;;;;;6182490;23;20505;-80
2021/08/31 15:45:32;;;;;;;6.20;5.30;;;22.50;1.00;;;;;;6186047;23;21306;-80
2021/08/31 15:47:58;;;;;;;7.17;5.43;;;22.40;1.00;;;;;;6186253;23;20498;-80